Terminal Aerodrome Forecast
Issued by NWS Pocatello, ID

Home | Current Version | Previous Version | Text Only | Print | Product List | Glossary On
Versions: 1 2 3 4 5 6 7 8 9 10 11 12 13
000
FTUS45 KPIH 072334
TAFBYI
TAF
KBYI 072334Z 0800/0824 06007KT P6SM VCTS SCT080CB SCT180
     FM080300 VRB05KT P6SM SCT080
     FM081400 07007KT P6SM SCT080 BKN130
     FM081900 21009KT P6SM VCTS SCT080CB BKN150=

USA.gov is the U.S. government's official web portal to all federal, state and local government web resources and services.